Time;durP1;ratioP1;P1;durP2;ratioP2;P2;SDS_P1;SDS_P2;PMS_P1;PMS_P2;Temp;Humidity;BMP_temperature;BMP_pressure;BME280_temperature;BME280_humidity;BME280_pressure;Samples;Min_cycle;Max_cycle;Signal;HPM_P1;HPM_P2
2022/12/08 00:00:26;;;;;;;11.05;7.10;;;3.20;99.90;;;;;;5071236;28;20195;-49
2022/12/08 00:02:53;;;;;;;10.32;7.22;;;3.30;99.90;;;;;;5072054;28;20183;-49
2022/12/08 00:10:50;;;;;;;13.43;8.02;;;3.40;99.90;;;;;;5071872;28;20663;-48
2022/12/08 00:13:16;;;;;;;15.77;8.02;;;3.40;99.90;;;;;;5071902;28;20490;-48
2022/12/08 00:15:43;;;;;;;11.93;7.10;;;3.20;99.90;;;;;;5071734;28;20202;-48
2022/12/08 00:18:09;;;;;;;11.25;8.38;;;3.20;99.90;;;;;;5071929;28;20193;-50
2022/12/08 00:20:37;;;;;;;9.02;7.30;;;3.40;99.90;;;;;;5071398;28;20199;-48
2022/12/08 00:23:04;;;;;;;7.97;6.35;;;3.20;99.90;;;;;;5072006;28;20270;-50
2022/12/08 00:25:31;;;;;;;14.93;7.72;;;3.20;99.90;;;;;;5071429;28;20191;-49
2022/12/08 00:27:58;;;;;;;9.55;7.28;;;3.40;99.90;;;;;;5071531;28;20635;-50
2022/12/08 00:30:25;;;;;;;10.02;7.70;;;3.30;99.90;;;;;;5070901;28;20618;-48
2022/12/08 00:32:52;;;;;;;18.38;8.60;;;3.50;99.90;;;;;;5071687;28;20203;-49
2022/12/08 00:35:18;;;;;;;13.40;7.90;;;3.20;99.90;;;;;;5071584;28;20196;-49
2022/12/08 00:37:45;;;;;;;12.48;9.20;;;3.30;99.90;;;;;;5071417;28;20208;-48
2022/12/08 00:40:12;;;;;;;18.17;8.45;;;3.40;99.90;;;;;;5070889;28;20202;-50
2022/12/08 00:42:38;;;;;;;11.40;7.93;;;3.20;99.90;;;;;;5071639;28;20202;-49
2022/12/08 00:45:07;;;;;;;12.18;6.93;;;3.40;99.90;;;;;;5071489;28;20192;-49
2022/12/08 00:47:34;;;;;;;14.05;8.27;;;3.40;99.90;;;;;;5071156;28;20223;-50
2022/12/08 00:50:00;;;;;;;15.23;7.10;;;3.40;99.90;;;;;;5070763;28;20198;-48
2022/12/08 00:52:27;;;;;;;11.65;7.70;;;3.60;99.90;;;;;;5071448;28;20211;-49
2022/12/08 00:54:53;;;;;;;11.90;7.75;;;3.50;99.90;;;;;;5071252;28;20192;-49
2022/12/08 00:57:21;;;;;;;17.50;8.23;;;3.40;99.90;;;;;;5071603;28;20604;-49
2022/12/08 00:59:48;;;;;;;16.70;7.45;;;3.60;99.90;;;;;;5070733;28;20202;-50
2022/12/08 01:02:16;;;;;;;11.52;7.80;;;3.50;99.90;;;;;;5071193;28;20210;-50
2022/12/08 01:04:42;;;;;;;16.58;8.25;;;3.60;99.90;;;;;;5071501;28;20199;-49
2022/12/08 01:07:09;;;;;;;12.63;8.50;;;3.60;99.90;;;;;;5071102;28;20297;-50
2022/12/08 01:09:36;;;;;;;12.05;8.00;;;3.40;99.90;;;;;;5072705;28;20191;-49
2022/12/08 01:12:04;;;;;;;14.07;9.65;;;3.50;99.90;;;;;;5074840;28;20280;-48
2022/12/08 01:14:30;;;;;;;15.02;9.70;;;3.40;99.90;;;;;;5074781;28;20199;-50
2022/12/08 01:16:57;;;;;;;12.68;8.57;;;3.50;99.90;;;;;;5074620;28;20220;-49
2022/12/08 01:19:25;;;;;;;13.05;8.25;;;3.60;99.90;;;;;;5074072;28;20282;-48
2022/12/08 01:21:52;;;;;;;11.82;7.70;;;3.60;99.90;;;;;;5074565;28;20424;-50
2022/12/08 01:24:20;;;;;;;12.52;8.40;;;3.40;99.90;;;;;;5074487;28;20214;-48
2022/12/08 01:26:47;;;;;;;17.35;8.85;;;3.40;99.90;;;;;;5074640;28;20215;-49
2022/12/08 01:29:15;;;;;;;13.65;8.55;;;3.40;99.90;;;;;;5073768;28;20191;-48
2022/12/08 01:31:42;;;;;;;9.48;7.32;;;3.40;99.90;;;;;;5074455;28;20199;-49
2022/12/08 01:34:11;;;;;;;13.80;9.55;;;3.20;99.90;;;;;;5074308;28;20673;-49
2022/12/08 01:36:39;;;;;;;14.40;9.90;;;3.70;99.90;;;;;;5074460;28;20219;-49
2022/12/08 01:39:08;;;;;;;17.48;9.57;;;3.50;99.90;;;;;;5073581;28;20191;-50
2022/12/08 01:41:37;;;;;;;13.35;10.23;;;3.60;99.90;;;;;;5074199;28;20203;-50
2022/12/08 01:44:42;;;;;;;15.15;9.05;;;3.60;99.90;;;;;;5074155;28;20630;-51
2022/12/08 01:47:09;;;;;;;11.98;8.90;;;3.80;99.90;;;;;;5073762;28;20219;-48
2022/12/08 01:49:36;;;;;;;13.38;8.95;;;3.50;99.90;;;;;;5073354;28;20554;-49
2022/12/08 01:52:11;;;;;;;12.35;8.90;;;3.90;99.90;;;;;;5074073;28;20195;-48
2022/12/08 01:54:43;;;;;;;16.52;10.23;;;3.40;99.90;;;;;;5073972;28;20195;-50
2022/12/08 01:57:14;;;;;;;11.38;8.20;;;3.60;99.90;;;;;;5073922;28;20215;-51
2022/12/08 01:59:45;;;;;;;13.38;9.25;;;3.80;99.90;;;;;;5055521;28;20294;-49
2022/12/08 02:02:12;;;;;;;12.10;9.73;;;3.60;99.90;;;;;;5073798;28;20206;-49
2022/12/08 02:04:39;;;;;;;10.93;8.63;;;3.50;99.90;;;;;;5073752;28;20199;-49
2022/12/08 02:07:09;;;;;;;13.57;10.10;;;3.60;99.90;;;;;;5073527;28;20222;-48
2022/12/08 02:09:37;;;;;;;16.35;9.82;;;4.00;99.90;;;;;;5072902;28;20192;-47
2022/12/08 02:12:04;;;;;;;14.75;9.80;;;3.70;99.90;;;;;;5073667;28;20276;-48
2022/12/08 02:14:31;;;;;;;16.10;9.95;;;3.90;99.90;;;;;;5055692;28;20678;-48
2022/12/08 02:17:05;;;;;;;15.23;10.13;;;3.80;99.90;;;;;;5073486;28;20245;-48
2022/12/08 02:20:03;;;;;;;12.75;10.27;;;3.80;99.90;;;;;;5072502;28;20248;-49
2022/12/08 02:22:39;;;;;;;16.38;8.65;;;3.70;99.90;;;;;;5073520;28;20199;-49
2022/12/08 02:25:15;;;;;;;14.90;9.40;;;3.90;99.90;;;;;;5073432;28;20191;-49
2022/12/08 02:27:49;;;;;;;13.20;9.25;;;3.30;99.90;;;;;;5073509;28;20219;-50
2022/12/08 02:30:22;;;;;;;15.40;10.70;;;4.00;99.90;;;;;;5072574;28;20210;-48
2022/12/08 02:33:06;;;;;;;17.13;9.73;;;3.60;99.90;;;;;;5073299;28;20203;-49
2022/12/08 02:35:43;;;;;;;15.25;10.60;;;3.90;99.90;;;;;;5073457;28;20656;-48
2022/12/08 02:38:20;;;;;;;12.38;9.60;;;3.30;99.90;;;;;;5073106;28;20265;-48
2022/12/08 02:40:52;;;;;;;13.77;9.75;;;3.90;99.90;;;;;;5072549;28;20202;-48
2022/12/08 02:43:27;;;;;;;11.65;9.18;;;3.80;99.90;;;;;;5073048;28;20198;-49
2022/12/08 02:45:59;;;;;;;11.75;9.20;;;3.70;99.90;;;;;;5072834;28;20197;-48
2022/12/08 02:48:27;;;;;;;14.73;9.38;;;4.00;99.90;;;;;;5072541;28;20207;-49
2022/12/08 02:50:55;;;;;;;14.38;9.40;;;3.80;99.90;;;;;;5072916;28;20196;-48
2022/12/08 02:53:21;;;;;;;15.90;9.75;;;3.70;99.90;;;;;;5072685;28;20206;-48
2022/12/08 02:55:57;;;;;;;11.88;8.60;;;3.80;99.90;;;;;;5072717;28;20194;-49
2022/12/08 02:58:42;;;;;;;11.05;8.52;;;3.80;99.90;;;;;;5072363;28;20191;-48
2022/12/08 03:01:20;;;;;;;10.13;7.55;;;3.80;99.90;;;;;;5072747;28;20191;-49
2022/12/08 03:03:57;;;;;;;13.65;8.38;;;3.60;99.90;;;;;;5072667;28;20205;-50
2022/12/08 03:06:30;;;;;;;13.35;8.35;;;3.80;99.90;;;;;;5072810;28;20226;-49
2022/12/08 03:09:01;;;;;;;12.55;7.68;;;3.90;99.90;;;;;;5071800;28;20219;-49
2022/12/08 03:11:34;;;;;;;9.23;7.25;;;3.90;99.90;;;;;;5072532;28;20199;-49
2022/12/08 03:14:04;;;;;;;10.32;7.25;;;3.70;99.90;;;;;;5072532;28;20195;-48
2022/12/08 03:16:34;;;;;;;9.77;7.05;;;3.80;99.90;;;;;;5072372;28;20248;-49
2022/12/08 03:19:09;;;;;;;13.27;7.93;;;4.00;99.90;;;;;;5072064;28;20187;-48
2022/12/08 03:21:38;;;;;;;12.05;7.70;;;3.70;99.90;;;;;;5072507;28;20210;-49
2022/12/08 03:24:09;;;;;;;11.38;7.05;;;3.60;99.90;;;;;;5072846;28;20195;-49
2022/12/08 03:26:42;;;;;;;10.18;7.20;;;3.90;99.90;;;;;;5072960;28;20211;-48
2022/12/08 03:29:08;;;;;;;9.20;6.25;;;3.70;99.90;;;;;;5072385;28;20222;-49
2022/12/08 03:31:42;;;;;;;8.82;6.13;;;3.90;99.90;;;;;;5072508;28;20560;-48
2022/12/08 03:34:11;;;;;;;9.50;6.50;;;3.70;99.90;;;;;;5072437;28;20191;-49
2022/12/08 03:36:39;;;;;;;10.63;6.45;;;3.90;99.90;;;;;;5072031;28;20221;-48
2022/12/08 03:39:06;;;;;;;11.25;5.95;;;3.70;99.90;;;;;;5071455;28;20183;-49
2022/12/08 03:41:32;;;;;;;9.02;6.22;;;3.60;99.90;;;;;;5072342;28;20199;-48
2022/12/08 03:43:59;;;;;;;7.68;6.13;;;3.70;99.90;;;;;;5072511;28;20199;-48
2022/12/08 03:46:28;;;;;;;9.38;6.47;;;3.80;99.90;;;;;;5072595;28;20219;-50
2022/12/08 03:48:54;;;;;;;9.43;5.45;;;3.80;99.90;;;;;;5054084;28;20222;-48
2022/12/08 03:51:21;;;;;;;8.20;6.22;;;3.70;99.90;;;;;;5072512;28;20202;-48
2022/12/08 03:53:49;;;;;;;6.22;5.50;;;3.70;99.90;;;;;;5072236;28;20676;-49
2022/12/08 03:56:22;;;;;;;9.48;6.93;;;3.20;99.90;;;;;;5073155;28;20585;-48
2022/12/08 03:58:48;;;;;;;8.98;5.55;;;3.90;99.90;;;;;;5074563;28;20191;-49
2022/12/08 04:01:15;;;;;;;8.15;6.95;;;3.30;99.90;;;;;;5074928;28;20705;-49
2022/12/08 04:03:41;;;;;;;8.88;6.32;;;3.00;99.90;;;;;;5072960;28;20198;-48
2022/12/08 04:06:08;;;;;;;8.73;6.68;;;3.60;99.90;;;;;;5072498;28;20230;-48
2022/12/08 04:08:35;;;;;;;9.32;6.93;;;3.80;99.90;;;;;;5053356;28;20691;-50
2022/12/08 04:11:05;;;;;;;11.50;7.95;;;3.60;99.90;;;;;;5071848;28;20203;-48
2022/12/08 04:13:32;;;;;;;10.30;8.05;;;3.80;99.90;;;;;;5071838;28;20249;-48
2022/12/08 04:15:58;;;;;;;12.38;8.27;;;3.10;99.90;;;;;;5071719;28;20219;-48
2022/12/08 04:18:25;;;;;;;11.18;7.93;;;3.70;99.90;;;;;;5071256;28;20664;-50
2022/12/08 04:20:51;;;;;;;11.05;8.45;;;3.20;99.90;;;;;;5071523;28;20191;-49
2022/12/08 04:23:18;;;;;;;12.30;9.30;;;3.60;99.90;;;;;;5071864;28;20203;-50
2022/12/08 04:25:45;;;;;;;12.32;9.50;;;3.60;99.90;;;;;;5071522;28;20206;-49
2022/12/08 04:28:12;;;;;;;11.75;9.30;;;3.60;99.90;;;;;;5071487;28;20215;-49
2022/12/08 04:30:39;;;;;;;13.27;9.27;;;3.70;99.90;;;;;;5071039;28;20250;-49
2022/12/08 04:33:06;;;;;;;12.70;10.50;;;3.40;99.90;;;;;;5071564;28;20199;-48
2022/12/08 04:35:32;;;;;;;13.13;9.90;;;3.70;99.90;;;;;;5071518;28;20206;-48
2022/12/08 04:37:59;;;;;;;12.50;9.60;;;3.60;99.90;;;;;;5071424;28;20220;-49
2022/12/08 04:40:27;;;;;;;15.90;10.88;;;3.00;99.90;;;;;;5070967;28;20206;-49
2022/12/08 04:42:53;;;;;;;14.27;10.40;;;3.40;99.90;;;;;;5071498;28;20199;-48
2022/12/08 04:45:21;;;;;;;14.68;10.95;;;3.50;99.90;;;;;;5074912;28;20195;-48
2022/12/08 04:47:49;;;;;;;10.18;8.65;;;3.60;99.90;;;;;;5075339;28;20239;-48
2022/12/08 04:50:16;;;;;;;15.48;10.00;;;3.50;99.90;;;;;;5074437;28;20555;-48
2022/12/08 04:52:42;;;;;;;13.73;10.75;;;3.50;99.90;;;;;;5075050;28;20199;-49
2022/12/08 04:55:10;;;;;;;12.90;10.02;;;3.50;99.90;;;;;;5075119;28;20203;-48
2022/12/08 04:57:36;;;;;;;16.38;10.25;;;3.70;99.90;;;;;;5074947;28;20215;-48
2022/12/08 05:00:04;;;;;;;14.63;11.52;;;3.70;99.90;;;;;;5074091;28;20183;-49
2022/12/08 05:02:32;;;;;;;14.38;11.43;;;3.50;99.90;;;;;;5074782;28;20211;-48
2022/12/08 05:04:59;;;;;;;15.90;10.45;;;3.70;99.90;;;;;;5074691;28;20202;-48
2022/12/08 05:07:26;;;;;;;14.40;11.65;;;3.10;99.90;;;;;;5074914;28;20227;-49
2022/12/08 05:09:53;;;;;;;17.75;11.63;;;3.20;99.90;;;;;;5074038;28;20235;-46
2022/12/08 05:12:19;;;;;;;16.40;12.10;;;3.60;99.90;;;;;;5074612;28;20678;-48
2022/12/08 05:14:46;;;;;;;19.42;12.18;;;3.50;99.90;;;;;;5074536;28;20206;-48
2022/12/08 05:17:13;;;;;;;13.07;11.13;;;3.60;99.90;;;;;;5074976;28;20718;-48
2022/12/08 05:19:41;;;;;;;17.52;11.60;;;3.50;99.90;;;;;;5073823;28;20274;-49
2022/12/08 05:22:07;;;;;;;15.95;11.45;;;3.70;99.90;;;;;;5074852;28;20681;-50
2022/12/08 05:24:34;;;;;;;21.88;12.45;;;4.40;99.90;;;;;;5074408;28;20208;-49
2022/12/08 05:27:01;;;;;;;14.15;11.23;;;3.20;99.90;;;;;;5074677;28;20597;-50
2022/12/08 05:29:28;;;;;;;15.05;11.55;;;3.80;99.90;;;;;;5073626;28;20226;-49
2022/12/08 05:31:54;;;;;;;17.27;13.02;;;3.90;99.90;;;;;;5074387;28;20204;-50
2022/12/08 05:34:21;;;;;;;17.05;13.00;;;3.80;99.90;;;;;;5074580;28;20698;-50
2022/12/08 05:36:49;;;;;;;17.77;13.40;;;3.80;99.90;;;;;;5074746;28;20215;-49
2022/12/08 05:39:15;;;;;;;22.15;12.63;;;3.60;99.90;;;;;;5073465;28;20202;-49
2022/12/08 05:41:42;;;;;;;15.77;12.52;;;4.10;99.90;;;;;;5074149;28;20682;-49
2022/12/08 05:44:09;;;;;;;17.80;12.73;;;4.10;99.90;;;;;;5073982;28;20278;-48
2022/12/08 05:46:36;;;;;;;20.85;13.07;;;3.70;99.90;;;;;;5073783;28;20230;-49
2022/12/08 05:49:03;;;;;;;21.17;14.10;;;3.90;99.90;;;;;;5073401;28;20591;-49
2022/12/08 05:51:30;;;;;;;21.08;14.45;;;4.10;99.90;;;;;;5073938;28;20195;-49
2022/12/08 05:53:59;;;;;;;20.98;16.20;;;4.00;99.90;;;;;;5055826;28;20203;-49
2022/12/08 05:56:25;;;;;;;23.65;17.98;;;4.00;99.90;;;;;;5073714;28;20264;-49
2022/12/08 05:58:52;;;;;;;27.38;18.00;;;3.80;99.90;;;;;;5072882;28;20202;-49
2022/12/08 06:01:21;;;;;;;19.85;13.95;;;3.70;99.90;;;;;;5074292;28;20208;-50
2022/12/08 06:03:48;;;;;;;20.25;14.15;;;3.60;99.90;;;;;;5074257;28;20195;-49
2022/12/08 06:06:14;;;;;;;17.13;12.90;;;3.90;99.90;;;;;;5055889;28;20218;-49
2022/12/08 06:08:41;;;;;;;21.77;15.98;;;3.80;99.90;;;;;;5072766;28;20226;-50
2022/12/08 06:11:09;;;;;;;20.20;14.38;;;3.80;99.90;;;;;;5073423;28;20191;-50
2022/12/08 06:13:36;;;;;;;18.40;14.02;;;4.00;99.90;;;;;;5073265;28;20203;-50
2022/12/08 06:16:06;;;;;;;23.75;14.07;;;3.80;99.90;;;;;;5073359;28;20211;-49
2022/12/08 06:18:32;;;;;;;22.63;15.18;;;3.80;99.90;;;;;;5072462;28;20207;-50
2022/12/08 06:21:03;;;;;;;25.42;16.55;;;3.90;99.90;;;;;;5073503;28;20282;-49
2022/12/08 06:23:30;;;;;;;21.70;15.02;;;4.00;99.90;;;;;;5073480;28;20229;-49
2022/12/08 06:26:00;;;;;;;21.38;15.32;;;4.00;99.90;;;;;;5073131;28;20222;-49
2022/12/08 06:28:28;;;;;;;22.88;16.00;;;4.00;99.90;;;;;;5054749;28;20302;-49
2022/12/08 06:30:55;;;;;;;23.88;15.70;;;3.70;99.90;;;;;;5073080;28;20206;-49
2022/12/08 06:33:21;;;;;;;21.85;16.08;;;3.60;99.90;;;;;;5072798;28;20573;-50
2022/12/08 06:35:48;;;;;;;30.35;17.70;;;4.20;99.90;;;;;;5072624;28;20199;-49
2022/12/08 06:38:15;;;;;;;24.50;16.20;;;3.80;99.90;;;;;;5072893;28;20245;-48
2022/12/08 06:40:41;;;;;;;21.75;15.82;;;4.10;99.90;;;;;;5072201;28;20685;-48
2022/12/08 06:43:08;;;;;;;21.92;15.63;;;4.10;99.90;;;;;;5072089;28;20191;-48
2022/12/08 06:45:36;;;;;;;27.67;15.13;;;4.00;99.90;;;;;;5072708;28;20199;-49
2022/12/08 06:48:03;;;;;;;27.73;14.88;;;4.20;99.90;;;;;;5072810;28;20225;-50
2022/12/08 06:50:31;;;;;;;26.50;15.98;;;3.50;99.90;;;;;;5071845;28;20227;-49
2022/12/08 06:52:58;;;;;;;25.52;15.45;;;3.40;99.90;;;;;;5054394;28;20710;-49
2022/12/08 06:55:24;;;;;;;23.48;15.68;;;3.60;99.90;;;;;;5072078;28;20202;-50
2022/12/08 06:57:52;;;;;;;25.83;16.33;;;3.50;99.90;;;;;;5072164;28;20754;-49
2022/12/08 07:00:19;;;;;;;23.08;15.93;;;3.70;99.90;;;;;;5071750;28;20237;-48
2022/12/08 07:02:47;;;;;;;21.20;14.25;;;4.00;99.90;;;;;;5072690;28;20195;-49
2022/12/08 07:05:14;;;;;;;24.63;15.23;;;3.90;99.90;;;;;;5072414;28;20200;-49
2022/12/08 07:07:41;;;;;;;22.77;13.93;;;4.00;99.90;;;;;;5071118;28;20226;-50
2022/12/08 07:10:08;;;;;;;22.25;13.93;;;4.30;99.90;;;;;;5071436;28;20722;-49
2022/12/08 07:12:35;;;;;;;26.35;17.38;;;4.40;99.90;;;;;;5072084;28;20565;-48
2022/12/08 07:15:01;;;;;;;23.35;14.43;;;4.30;99.90;;;;;;5072256;28;20294;-49
2022/12/08 07:17:28;;;;;;;27.27;17.30;;;4.20;99.90;;;;;;5072438;28;20223;-50
2022/12/08 07:19:56;;;;;;;25.05;16.70;;;4.40;99.90;;;;;;5071328;28;20191;-49
2022/12/08 07:22:22;;;;;;;23.08;14.93;;;4.30;99.90;;;;;;5072001;28;20206;-49
2022/12/08 07:24:49;;;;;;;26.38;16.95;;;4.10;99.90;;;;;;5072066;28;20192;-51
2022/12/08 07:27:16;;;;;;;35.97;18.90;;;4.20;99.90;;;;;;5072335;28;20714;-48
2022/12/08 07:29:42;;;;;;;23.55;16.05;;;3.90;99.90;;;;;;5071758;28;20225;-49
2022/12/08 07:32:10;;;;;;;20.40;15.00;;;4.40;99.90;;;;;;5072669;28;20199;-48
2022/12/08 07:34:36;;;;;;;20.45;13.73;;;3.70;99.90;;;;;;5072537;28;20199;-48
2022/12/08 07:37:04;;;;;;;20.42;15.40;;;4.40;99.90;;;;;;5072134;28;20226;-48
2022/12/08 07:39:31;;;;;;;22.08;15.15;;;4.40;99.90;;;;;;5071236;28;20188;-50
2022/12/08 07:41:58;;;;;;;22.73;16.83;;;4.20;99.90;;;;;;5072018;28;20653;-49
2022/12/08 07:44:26;;;;;;;23.25;16.00;;;4.00;99.90;;;;;;5053269;28;20206;-48
2022/12/08 07:46:53;;;;;;;28.33;17.75;;;4.20;99.90;;;;;;5071677;28;20234;-50
2022/12/08 07:49:19;;;;;;;26.45;16.75;;;4.50;99.90;;;;;;5070924;28;20213;-48
2022/12/08 07:51:46;;;;;;;29.42;16.75;;;4.30;99.90;;;;;;5071614;28;20206;-48
2022/12/08 07:54:14;;;;;;;19.80;16.20;;;4.40;99.90;;;;;;5071695;28;20586;-48
2022/12/08 07:56:41;;;;;;;28.65;17.10;;;4.00;99.90;;;;;;5071689;28;20215;-49
2022/12/08 07:59:07;;;;;;;23.55;15.05;;;3.70;99.90;;;;;;5070937;28;20732;-49
2022/12/08 08:01:35;;;;;;;23.10;15.73;;;4.20;99.90;;;;;;5071409;28;20199;-49
2022/12/08 08:04:04;;;;;;;24.73;15.60;;;4.30;99.90;;;;;;5071585;28;20192;-49
2022/12/08 08:06:32;;;;;;;23.77;13.80;;;4.60;99.90;;;;;;5071312;28;20211;-48
2022/12/08 08:08:58;;;;;;;24.05;15.98;;;4.70;99.90;;;;;;5070427;28;20195;-49
2022/12/08 08:11:26;;;;;;;27.83;15.43;;;4.50;99.90;;;;;;5071628;28;20196;-48
2022/12/08 08:13:53;;;;;;;20.60;14.60;;;4.50;99.90;;;;;;5071571;28;20659;-49
2022/12/08 08:16:20;;;;;;;22.77;14.15;;;4.50;99.90;;;;;;5071263;28;20347;-50
2022/12/08 08:18:48;;;;;;;22.67;13.50;;;4.70;99.90;;;;;;5072091;28;20207;-49
2022/12/08 08:21:15;;;;;;;28.55;16.83;;;4.40;99.90;;;;;;5075505;28;20531;-49
2022/12/08 08:23:42;;;;;;;20.13;15.80;;;4.60;99.90;;;;;;5075141;28;20226;-49
2022/12/08 08:26:09;;;;;;;24.95;14.50;;;4.40;99.90;;;;;;5075227;28;20220;-50
2022/12/08 08:28:37;;;;;;;25.58;14.15;;;4.80;99.90;;;;;;5074099;28;20222;-49
2022/12/08 08:31:03;;;;;;;24.17;14.50;;;4.30;99.90;;;;;;5074923;28;20230;-50
2022/12/08 08:33:30;;;;;;;23.30;14.40;;;4.70;99.90;;;;;;5075072;28;20718;-49
2022/12/08 08:35:57;;;;;;;24.05;16.42;;;4.70;99.90;;;;;;5056209;28;20430;-50
2022/12/08 08:38:23;;;;;;;23.10;15.50;;;5.30;99.90;;;;;;5074563;28;20201;-48
2022/12/08 08:40:50;;;;;;;21.35;13.73;;;4.80;99.90;;;;;;5074549;28;20436;-48
2022/12/08 08:43:28;;;;;;;24.73;15.57;;;5.00;99.90;;;;;;5074727;28;20610;-49
2022/12/08 08:45:58;;;;;;;24.93;14.97;;;4.80;99.90;;;;;;5074913;28;20820;-50
2022/12/08 08:48:25;;;;;;;22.90;14.68;;;4.80;99.90;;;;;;5074419;28;20429;-49
2022/12/08 08:50:52;;;;;;;18.40;14.50;;;5.00;99.90;;;;;;5074373;28;20215;-49
2022/12/08 08:53:18;;;;;;;24.60;16.53;;;4.80;99.90;;;;;;5074468;28;20425;-49
2022/12/08 08:55:45;;;;;;;26.88;14.50;;;5.30;99.90;;;;;;5074476;28;20404;-49
2022/12/08 08:58:11;;;;;;;21.48;15.40;;;5.10;99.90;;;;;;5074122;28;20895;-49
2022/12/08 09:00:38;;;;;;;20.40;14.93;;;5.10;99.90;;;;;;5073265;28;20207;-50
2022/12/08 09:03:06;;;;;;;18.05;13.35;;;4.90;99.90;;;;;;5074411;28;20829;-50
2022/12/08 09:05:33;;;;;;;17.38;12.60;;;5.00;99.90;;;;;;5066477;28;20202;-49
2022/12/08 09:07:59;;;;;;;20.00;13.65;;;4.70;99.90;;;;;;5074609;28;20219;-51
2022/12/08 09:10:28;;;;;;;21.00;13.77;;;5.40;99.90;;;;;;5071085;28;20219;-49
2022/12/08 09:12:54;;;;;;;22.17;14.25;;;5.30;99.90;;;;;;5062690;28;20278;-49
2022/12/08 09:15:21;;;;;;;19.27;14.00;;;5.10;99.90;;;;;;5056006;28;20695;-48
2022/12/08 09:17:47;;;;;;;19.13;12.90;;;5.20;99.90;;;;;;5058797;28;20476;-51
2022/12/08 09:20:15;;;;;;;15.00;13.10;;;5.30;99.90;;;;;;5053253;28;20196;-49
2022/12/08 09:22:42;;;;;;;22.27;13.88;;;4.90;99.90;;;;;;5060013;28;20226;-49
2022/12/08 09:25:09;;;;;;;21.27;12.95;;;5.50;99.90;;;;;;5073941;28;20196;-49
2022/12/08 09:27:36;;;;;;;24.33;16.00;;;5.00;99.90;;;;;;5073766;28;20216;-49
2022/12/08 09:30:03;;;;;;;19.27;14.48;;;5.30;99.90;;;;;;5072402;28;21088;-48
2022/12/08 09:32:29;;;;;;;21.15;14.10;;;5.20;99.90;;;;;;5056142;28;20196;-48
2022/12/08 09:34:56;;;;;;;20.20;14.23;;;5.00;99.90;;;;;;5072890;28;20691;-49
2022/12/08 09:37:24;;;;;;;24.35;20.58;;;5.40;99.90;;;;;;5073701;28;20560;-48
2022/12/08 09:39:52;;;;;;;25.15;16.55;;;5.00;99.90;;;;;;5073155;28;20184;-49
2022/12/08 09:42:29;;;;;;;37.35;23.33;;;5.00;99.90;;;;;;5073044;28;20283;-48
2022/12/08 09:45:04;;;;;;;23.27;17.20;;;4.90;99.90;;;;;;5073365;28;20200;-47
2022/12/08 09:47:34;;;;;;;20.83;13.98;;;5.30;99.90;;;;;;5073399;28;20222;-51
2022/12/08 09:50:05;;;;;;;31.25;16.40;;;5.30;99.90;;;;;;5071710;28;20442;-48
2022/12/08 09:52:39;;;;;;;19.80;15.35;;;5.60;99.90;;;;;;5073194;28;20192;-49
2022/12/08 09:55:14;;;;;;;21.92;15.05;;;5.10;99.90;;;;;;5071771;28;20496;-49
2022/12/08 09:57:41;;;;;;;24.90;14.60;;;5.50;99.90;;;;;;5071337;28;20699;-48
2022/12/08 10:00:13;;;;;;;26.00;15.77;;;5.50;99.90;;;;;;5070823;28;20434;-48
2022/12/08 10:02:39;;;;;;;19.73;14.20;;;5.40;99.90;;;;;;5071534;28;20245;-50
2022/12/08 10:05:12;;;;;;;22.23;14.45;;;5.50;99.90;;;;;;5071586;28;20412;-50
2022/12/08 10:07:46;;;;;;;21.13;13.60;;;5.30;99.90;;;;;;5071512;28;20230;-50
2022/12/08 10:10:25;;;;;;;19.83;13.63;;;4.70;99.90;;;;;;5072228;28;20436;-51
2022/12/08 10:12:57;;;;;;;26.30;14.75;;;5.50;99.90;;;;;;5055300;28;20511;-50
2022/12/08 10:15:43;;;;;;;23.83;14.63;;;5.20;99.90;;;;;;5071606;28;20204;-49
2022/12/08 10:18:14;;;;;;;21.60;14.43;;;5.40;99.90;;;;;;5070689;28;20431;-49
2022/12/08 10:20:43;;;;;;;20.07;14.27;;;5.30;99.90;;;;;;5072882;28;20438;-49
2022/12/08 10:23:20;;;;;;;22.42;15.60;;;5.40;99.90;;;;;;5054920;28;20421;-50
2022/12/08 10:25:48;;;;;;;18.57;15.03;;;5.50;99.90;;;;;;5073051;28;20204;-50
2022/12/08 10:28:15;;;;;;;26.37;15.00;;;5.30;99.90;;;;;;5055087;28;20974;-49
2022/12/08 10:30:42;;;;;;;20.25;16.67;;;4.80;99.90;;;;;;5071200;28;20436;-49
2022/12/08 10:33:15;;;;;;;23.40;14.17;;;5.70;99.90;;;;;;5072974;28;20547;-49
2022/12/08 10:35:44;;;;;;;20.80;13.00;;;5.90;99.90;;;;;;5073171;28;20417;-49
2022/12/08 10:38:20;;;;;;;22.80;14.40;;;5.80;99.90;;;;;;5074104;28;20406;-48
2022/12/08 10:40:50;;;;;;;23.50;16.17;;;5.70;99.90;;;;;;5072586;28;20404;-48
2022/12/08 10:43:21;;;;;;;24.75;17.92;;;5.70;99.90;;;;;;5071603;28;20433;-48
2022/12/08 10:45:48;;;;;;;26.83;16.70;;;6.00;99.90;;;;;;5074418;28;20223;-48
2022/12/08 10:48:18;;;;;;;18.30;14.87;;;6.00;99.90;;;;;;5073875;28;20851;-50
2022/12/08 10:50:46;;;;;;;17.77;13.37;;;5.80;99.90;;;;;;5072948;28;20457;-49
2022/12/08 10:53:19;;;;;;;21.67;14.50;;;5.80;99.90;;;;;;5073338;28;20522;-49
2022/12/08 10:55:49;;;;;;;21.13;16.07;;;5.90;99.90;;;;;;5072772;28;20425;-49
2022/12/08 10:58:32;;;;;;;19.60;14.60;;;5.80;99.90;;;;;;5073624;28;20518;-49
2022/12/08 11:01:04;;;;;;;25.37;19.47;;;5.30;99.90;;;;;;5072899;28;20424;-50
2022/12/08 11:03:35;;;;;;;28.47;18.90;;;6.00;99.90;;;;;;5073256;28;20413;-50
2022/12/08 11:06:12;;;;;;;19.60;15.07;;;5.80;99.90;;;;;;5073557;28;20429;-48
2022/12/08 11:08:48;;;;;;;19.52;15.27;;;5.80;99.90;;;;;;5070366;28;20434;-48
2022/12/08 11:11:17;;;;;;;19.17;14.93;;;6.10;99.90;;;;;;5071879;28;20214;-49
2022/12/08 11:13:44;;;;;;;20.30;12.30;;;6.20;99.90;;;;;;5054264;28;20495;-48
2022/12/08 11:16:14;;;;;;;18.30;13.90;;;5.80;99.90;;;;;;5072785;28;20429;-48
2022/12/08 11:18:42;;;;;;;19.73;12.43;;;6.00;99.90;;;;;;5071965;28;20445;-48
2022/12/08 11:21:13;;;;;;;26.73;12.23;;;5.90;99.90;;;;;;5072109;28;20913;-49
2022/12/08 11:23:42;;;;;;;20.53;11.67;;;5.30;99.90;;;;;;5072364;28;20421;-48
2022/12/08 11:26:15;;;;;;;16.20;11.77;;;5.70;99.90;;;;;;5053903;28;20452;-49
2022/12/08 11:28:43;;;;;;;15.47;11.10;;;5.90;99.90;;;;;;5053265;28;20426;-48
2022/12/08 11:31:22;;;;;;;16.63;10.73;;;5.70;99.90;;;;;;5071908;28;20497;-50
2022/12/08 11:33:51;;;;;;;16.38;11.77;;;5.30;99.90;;;;;;5071560;28;20784;-48
2022/12/08 11:36:22;;;;;;;14.87;11.67;;;5.60;99.90;;;;;;5071740;28;20214;-48
2022/12/08 11:38:51;;;;;;;19.07;11.97;;;5.50;99.90;;;;;;5070999;28;20989;-48
2022/12/08 11:41:21;;;;;;;19.50;12.70;;;5.60;99.90;;;;;;5071417;28;20499;-49
2022/12/08 11:43:57;;;;;;;16.70;10.40;;;5.70;99.90;;;;;;5072022;28;20484;-49
2022/12/08 11:46:29;;;;;;;15.83;11.73;;;5.70;99.90;;;;;;5071359;28;20464;-50
2022/12/08 11:49:01;;;;;;;20.07;12.53;;;5.70;99.90;;;;;;5070876;28;20447;-49
2022/12/08 11:51:32;;;;;;;14.20;10.77;;;5.70;99.90;;;;;;5071318;28;20481;-49
2022/12/08 11:54:18;;;;;;;16.13;12.30;;;5.60;99.90;;;;;;5071089;28;20526;-49
2022/12/08 11:56:48;;;;;;;16.20;12.52;;;5.60;99.90;;;;;;5071057;28;20440;-49
2022/12/08 11:59:25;;;;;;;19.43;11.33;;;5.50;99.90;;;;;;5070362;28;20192;-49
2022/12/08 12:01:51;;;;;;;20.03;12.03;;;5.80;99.90;;;;;;5071231;28;20410;-49
2022/12/08 12:04:24;;;;;;;21.60;13.07;;;5.40;99.90;;;;;;5071117;28;20496;-49
2022/12/08 12:07:35;;;;;;;18.70;13.30;;;5.60;99.90;;;;;;5071423;28;20815;-49
2022/12/08 12:10:18;;;;;;;22.88;15.35;;;5.70;99.90;;;;;;5070569;28;20958;-49
2022/12/08 12:12:59;;;;;;;18.80;13.83;;;6.00;99.90;;;;;;5071407;28;20197;-49
2022/12/08 12:15:56;;;;;;;17.73;13.20;;;5.80;99.90;;;;;;5071218;28;20413;-49
2022/12/08 12:18:29;;;;;;;18.67;13.95;;;5.70;99.90;;;;;;5070381;28;20434;-49
2022/12/08 12:20:59;;;;;;;19.17;14.10;;;5.90;99.90;;;;;;5071432;28;20192;-50
2022/12/08 12:23:32;;;;;;;19.60;13.57;;;6.20;99.90;;;;;;5052907;28;20434;-49
2022/12/08 12:26:01;;;;;;;18.30;12.83;;;5.90;99.90;;;;;;5071223;28;20590;-50
2022/12/08 12:28:33;;;;;;;15.63;11.53;;;6.00;99.90;;;;;;5070402;28;20496;-49
2022/12/08 12:31:05;;;;;;;18.63;12.60;;;5.90;99.90;;;;;;5070749;28;20547;-49
2022/12/08 12:33:34;;;;;;;17.90;14.47;;;6.10;99.90;;;;;;5071207;28;20438;-49
2022/12/08 12:36:04;;;;;;;17.03;13.63;;;6.00;99.90;;;;;;5070988;28;20459;-48
2022/12/08 12:41:22;;;;;;;22.93;12.63;;;5.40;99.90;;;;;;5061986;28;20805;-49
2022/12/08 12:44:09;;;;;;;19.23;12.07;;;6.10;99.90;;;;;;5071126;28;20437;-49
2022/12/08 12:46:52;;;;;;;17.17;10.53;;;6.00;99.90;;;;;;5071011;28;20805;-49
2022/12/08 12:49:53;;;;;;;13.70;10.73;;;5.90;99.90;;;;;;5070186;28;20898;-49
2022/12/08 12:52:37;;;;;;;14.97;10.70;;;6.10;99.90;;;;;;5071089;28;20504;-49
2022/12/08 12:55:34;;;;;;;12.63;10.20;;;6.00;99.90;;;;;;5070757;28;20494;-49
2022/12/08 12:58:18;;;;;;;14.27;11.13;;;6.20;99.90;;;;;;5070668;28;20469;-49
2022/12/08 13:00:45;;;;;;;19.35;15.18;;;5.50;99.90;;;;;;5069023;28;20417;-49